sensor_id;sensor_type;location;lat;lon;timestamp;P1;durP1;ratioP1;P2;durP2;ratioP2
49962;SDS011;36180;57.678;11.910;2024-02-26T00:02:16;2.83;;;2.53;;
49962;SDS011;36180;57.678;11.910;2024-02-26T00:04:44;3.20;;;2.70;;
49962;SDS011;36180;57.678;11.910;2024-02-26T00:07:11;3.50;;;2.50;;
49962;SDS011;36180;57.678;11.910;2024-02-26T00:09:38;3.20;;;2.53;;
49962;SDS011;36180;57.678;11.910;2024-02-26T00:12:05;4.70;;;2.85;;
49962;SDS011;36180;57.678;11.910;2024-02-26T00:14:33;3.88;;;3.05;;
49962;SDS011;36180;57.678;11.910;2024-02-26T00:17:00;8.52;;;3.33;;
49962;SDS011;36180;57.678;11.910;2024-02-26T00:19:26;5.30;;;3.10;;
49962;SDS011;36180;57.678;11.910;2024-02-26T00:21:55;7.72;;;3.38;;
49962;SDS011;36180;57.678;11.910;2024-02-26T00:24:22;5.57;;;3.25;;
49962;SDS011;36180;57.678;11.910;2024-02-26T00:26:49;4.20;;;2.83;;
49962;SDS011;36180;57.678;11.910;2024-02-26T00:29:19;4.70;;;3.40;;
49962;SDS011;36180;57.678;11.910;2024-02-26T00:31:46;6.10;;;3.50;;
49962;SDS011;36180;57.678;11.910;2024-02-26T00:34:13;4.38;;;3.15;;
49962;SDS011;36180;57.678;11.910;2024-02-26T00:36:40;7.30;;;3.30;;
49962;SDS011;36180;57.678;11.910;2024-02-26T00:39:09;6.18;;;3.50;;
49962;SDS011;36180;57.678;11.910;2024-02-26T00:41:38;4.65;;;3.47;;
49962;SDS011;36180;57.678;11.910;2024-02-26T00:44:05;4.90;;;3.40;;
49962;SDS011;36180;57.678;11.910;2024-02-26T00:46:32;8.63;;;3.92;;
49962;SDS011;36180;57.678;11.910;2024-02-26T00:48:59;6.88;;;3.90;;
49962;SDS011;36180;57.678;11.910;2024-02-26T00:51:27;5.55;;;3.83;;
49962;SDS011;36180;57.678;11.910;2024-02-26T00:53:54;6.00;;;3.85;;
49962;SDS011;36180;57.678;11.910;2024-02-26T00:56:22;6.13;;;3.10;;
49962;SDS011;36180;57.678;11.910;2024-02-26T00:58:49;8.13;;;3.80;;
49962;SDS011;36180;57.678;11.910;2024-02-26T01:01:16;6.13;;;4.22;;
49962;SDS011;36180;57.678;11.910;2024-02-26T01:03:43;5.32;;;4.13;;
49962;SDS011;36180;57.678;11.910;2024-02-26T01:06:10;6.05;;;4.07;;
49962;SDS011;36180;57.678;11.910;2024-02-26T01:08:37;5.60;;;3.97;;
49962;SDS011;36180;57.678;11.910;2024-02-26T01:11:04;4.75;;;3.60;;
49962;SDS011;36180;57.678;11.910;2024-02-26T01:13:32;5.68;;;3.50;;
49962;SDS011;36180;57.678;11.910;2024-02-26T01:15:59;4.78;;;3.38;;
49962;SDS011;36180;57.678;11.910;2024-02-26T01:18:26;8.48;;;3.70;;
49962;SDS011;36180;57.678;11.910;2024-02-26T01:20:53;6.10;;;3.35;;
49962;SDS011;36180;57.678;11.910;2024-02-26T01:23:20;7.72;;;3.58;;
49962;SDS011;36180;57.678;11.910;2024-02-26T01:25:47;6.78;;;3.67;;
49962;SDS011;36180;57.678;11.910;2024-02-26T01:28:14;5.85;;;4.00;;
49962;SDS011;36180;57.678;11.910;2024-02-26T01:30:43;5.80;;;3.70;;
49962;SDS011;36180;57.678;11.910;2024-02-26T01:33:10;6.65;;;4.10;;
49962;SDS011;36180;57.678;11.910;2024-02-26T01:35:37;5.50;;;4.07;;
49962;SDS011;36180;57.678;11.910;2024-02-26T01:38:04;6.72;;;4.00;;
49962;SDS011;36180;57.678;11.910;2024-02-26T01:40:32;8.65;;;4.20;;
49962;SDS011;36180;57.678;11.910;2024-02-26T01:42:59;8.27;;;4.75;;
49962;SDS011;36180;57.678;11.910;2024-02-26T01:45:26;5.68;;;4.30;;
49962;SDS011;36180;57.678;11.910;2024-02-26T01:47:55;7.38;;;4.70;;
49962;SDS011;36180;57.678;11.910;2024-02-26T01:50:22;7.82;;;4.45;;
49962;SDS011;36180;57.678;11.910;2024-02-26T01:52:50;8.70;;;4.63;;
49962;SDS011;36180;57.678;11.910;2024-02-26T01:55:17;8.90;;;5.72;;
49962;SDS011;36180;57.678;11.910;2024-02-26T01:57:45;11.15;;;7.80;;
49962;SDS011;36180;57.678;11.910;2024-02-26T02:00:12;28.65;;;16.50;;
49962;SDS011;36180;57.678;11.910;2024-02-26T02:02:41;22.33;;;14.30;;
49962;SDS011;36180;57.678;11.910;2024-02-26T02:05:11;13.95;;;8.98;;
49962;SDS011;36180;57.678;11.910;2024-02-26T02:07:39;12.88;;;7.55;;
49962;SDS011;36180;57.678;11.910;2024-02-26T02:10:07;14.35;;;8.85;;
49962;SDS011;36180;57.678;11.910;2024-02-26T02:12:34;13.35;;;8.07;;
49962;SDS011;36180;57.678;11.910;2024-02-26T02:15:05;13.27;;;8.25;;
49962;SDS011;36180;57.678;11.910;2024-02-26T02:17:32;13.82;;;9.00;;
49962;SDS011;36180;57.678;11.910;2024-02-26T02:19:59;10.15;;;6.82;;
49962;SDS011;36180;57.678;11.910;2024-02-26T02:22:28;6.78;;;4.80;;
49962;SDS011;36180;57.678;11.910;2024-02-26T02:24:57;6.07;;;5.00;;
49962;SDS011;36180;57.678;11.910;2024-02-26T02:27:25;8.88;;;5.28;;
49962;SDS011;36180;57.678;11.910;2024-02-26T02:29:52;6.65;;;4.82;;
49962;SDS011;36180;57.678;11.910;2024-02-26T02:32:19;9.82;;;5.05;;
49962;SDS011;36180;57.678;11.910;2024-02-26T02:34:47;10.00;;;5.03;;
49962;SDS011;36180;57.678;11.910;2024-02-26T02:37:13;9.27;;;5.25;;
49962;SDS011;36180;57.678;11.910;2024-02-26T02:39:42;10.20;;;6.00;;
49962;SDS011;36180;57.678;11.910;2024-02-26T02:42:10;8.75;;;5.82;;
49962;SDS011;36180;57.678;11.910;2024-02-26T02:44:37;9.73;;;5.65;;
49962;SDS011;36180;57.678;11.910;2024-02-26T02:47:04;8.43;;;5.32;;
49962;SDS011;36180;57.678;11.910;2024-02-26T02:49:31;8.52;;;5.30;;
49962;SDS011;36180;57.678;11.910;2024-02-26T02:51:58;10.70;;;5.40;;
49962;SDS011;36180;57.678;11.910;2024-02-26T02:54:25;11.55;;;5.65;;
49962;SDS011;36180;57.678;11.910;2024-02-26T02:56:53;8.15;;;5.60;;
49962;SDS011;36180;57.678;11.910;2024-02-26T02:59:20;9.80;;;5.43;;
49962;SDS011;36180;57.678;11.910;2024-02-26T03:01:47;9.80;;;5.53;;
49962;SDS011;36180;57.678;11.910;2024-02-26T03:04:14;8.18;;;5.50;;
49962;SDS011;36180;57.678;11.910;2024-02-26T03:06:41;8.40;;;5.00;;
49962;SDS011;36180;57.678;11.910;2024-02-26T03:09:08;11.05;;;6.13;;
49962;SDS011;36180;57.678;11.910;2024-02-26T03:11:35;9.95;;;5.72;;
49962;SDS011;36180;57.678;11.910;2024-02-26T03:14:03;13.88;;;7.93;;
49962;SDS011;36180;57.678;11.910;2024-02-26T03:16:31;11.43;;;8.30;;
49962;SDS011;36180;57.678;11.910;2024-02-26T03:18:58;13.27;;;7.22;;
49962;SDS011;36180;57.678;11.910;2024-02-26T03:21:26;11.73;;;5.97;;
49962;SDS011;36180;57.678;11.910;2024-02-26T03:23:53;12.57;;;8.02;;
49962;SDS011;36180;57.678;11.910;2024-02-26T03:26:20;11.18;;;7.57;;
49962;SDS011;36180;57.678;11.910;2024-02-26T03:28:47;10.35;;;6.57;;
49962;SDS011;36180;57.678;11.910;2024-02-26T03:31:15;9.05;;;6.28;;
49962;SDS011;36180;57.678;11.910;2024-02-26T03:33:42;9.93;;;6.45;;
49962;SDS011;36180;57.678;11.910;2024-02-26T03:36:09;8.60;;;6.13;;
49962;SDS011;36180;57.678;11.910;2024-02-26T03:38:36;10.43;;;6.22;;
49962;SDS011;36180;57.678;11.910;2024-02-26T03:41:04;10.32;;;6.10;;
49962;SDS011;36180;57.678;11.910;2024-02-26T03:43:31;11.35;;;7.10;;
49962;SDS011;36180;57.678;11.910;2024-02-26T03:45:58;12.25;;;7.25;;
49962;SDS011;36180;57.678;11.910;2024-02-26T03:48:26;13.00;;;6.72;;
49962;SDS011;36180;57.678;11.910;2024-02-26T03:50:53;11.77;;;6.47;;
49962;SDS011;36180;57.678;11.910;2024-02-26T03:53:20;13.27;;;6.30;;
49962;SDS011;36180;57.678;11.910;2024-02-26T03:55:47;12.25;;;6.88;;
49962;SDS011;36180;57.678;11.910;2024-02-26T03:58:14;10.85;;;7.05;;
49962;SDS011;36180;57.678;11.910;2024-02-26T04:00:42;10.57;;;6.60;;
49962;SDS011;36180;57.678;11.910;2024-02-26T04:03:09;10.35;;;6.57;;
49962;SDS011;36180;57.678;11.910;2024-02-26T04:05:37;13.02;;;7.15;;
49962;SDS011;36180;57.678;11.910;2024-02-26T04:08:04;11.27;;;6.93;;
49962;SDS011;36180;57.678;11.910;2024-02-26T04:10:32;9.93;;;6.80;;
49962;SDS011;36180;57.678;11.910;2024-02-26T04:13:03;10.23;;;6.57;;
49962;SDS011;36180;57.678;11.910;2024-02-26T04:15:30;13.07;;;7.13;;
49962;SDS011;36180;57.678;11.910;2024-02-26T04:17:57;9.88;;;7.05;;
49962;SDS011;36180;57.678;11.910;2024-02-26T04:20:23;11.77;;;6.72;;
49962;SDS011;36180;57.678;11.910;2024-02-26T04:22:51;9.77;;;6.85;;
49962;SDS011;36180;57.678;11.910;2024-02-26T04:25:19;11.35;;;7.18;;
49962;SDS011;36180;57.678;11.910;2024-02-26T04:27:46;12.90;;;7.05;;
49962;SDS011;36180;57.678;11.910;2024-02-26T04:30:13;11.02;;;6.97;;
49962;SDS011;36180;57.678;11.910;2024-02-26T04:32:40;11.63;;;6.97;;
49962;SDS011;36180;57.678;11.910;2024-02-26T04:35:07;10.40;;;6.95;;
49962;SDS011;36180;57.678;11.910;2024-02-26T04:37:34;11.35;;;6.35;;
49962;SDS011;36180;57.678;11.910;2024-02-26T04:40:03;9.75;;;6.72;;
49962;SDS011;36180;57.678;11.910;2024-02-26T04:42:31;11.02;;;7.38;;
49962;SDS011;36180;57.678;11.910;2024-02-26T04:44:58;12.52;;;6.95;;
49962;SDS011;36180;57.678;11.910;2024-02-26T04:47:25;13.23;;;6.38;;
49962;SDS011;36180;57.678;11.910;2024-02-26T04:49:52;11.80;;;6.68;;
49962;SDS011;36180;57.678;11.910;2024-02-26T04:52:19;9.90;;;7.00;;
49962;SDS011;36180;57.678;11.910;2024-02-26T04:54:46;13.20;;;7.35;;
49962;SDS011;36180;57.678;11.910;2024-02-26T04:57:14;11.82;;;7.05;;
49962;SDS011;36180;57.678;11.910;2024-02-26T04:59:43;11.80;;;7.55;;
49962;SDS011;36180;57.678;11.910;2024-02-26T05:02:11;11.02;;;7.53;;
49962;SDS011;36180;57.678;11.910;2024-02-26T05:04:37;12.82;;;7.28;;
49962;SDS011;36180;57.678;11.910;2024-02-26T05:07:04;13.50;;;7.47;;
49962;SDS011;36180;57.678;11.910;2024-02-26T05:09:31;11.57;;;6.78;;
49962;SDS011;36180;57.678;11.910;2024-02-26T05:11:58;10.52;;;6.40;;
49962;SDS011;36180;57.678;11.910;2024-02-26T05:14:27;11.57;;;6.78;;
49962;SDS011;36180;57.678;11.910;2024-02-26T05:16:54;10.13;;;6.35;;
49962;SDS011;36180;57.678;11.910;2024-02-26T05:19:21;11.32;;;7.90;;
49962;SDS011;36180;57.678;11.910;2024-02-26T05:21:48;13.93;;;8.30;;
49962;SDS011;36180;57.678;11.910;2024-02-26T05:24:15;11.77;;;7.70;;
49962;SDS011;36180;57.678;11.910;2024-02-26T05:26:42;10.25;;;7.57;;
49962;SDS011;36180;57.678;11.910;2024-02-26T05:29:09;13.15;;;7.90;;
49962;SDS011;36180;57.678;11.910;2024-02-26T05:31:38;13.30;;;7.18;;
49962;SDS011;36180;57.678;11.910;2024-02-26T05:34:05;12.60;;;8.35;;
49962;SDS011;36180;57.678;11.910;2024-02-26T05:36:32;10.93;;;7.30;;
49962;SDS011;36180;57.678;11.910;2024-02-26T05:38:59;12.68;;;8.20;;
49962;SDS011;36180;57.678;11.910;2024-02-26T05:41:26;13.60;;;8.07;;
49962;SDS011;36180;57.678;11.910;2024-02-26T05:43:53;14.27;;;8.30;;
49962;SDS011;36180;57.678;11.910;2024-02-26T05:46:20;10.32;;;7.72;;
49962;SDS011;36180;57.678;11.910;2024-02-26T05:48:49;11.50;;;7.80;;
49962;SDS011;36180;57.678;11.910;2024-02-26T05:51:17;12.35;;;7.45;;
49962;SDS011;36180;57.678;11.910;2024-02-26T05:53:44;13.68;;;7.70;;
49962;SDS011;36180;57.678;11.910;2024-02-26T05:56:12;11.82;;;7.85;;
49962;SDS011;36180;57.678;11.910;2024-02-26T05:58:39;13.90;;;8.40;;
49962;SDS011;36180;57.678;11.910;2024-02-26T06:01:05;11.25;;;8.48;;
49962;SDS011;36180;57.678;11.910;2024-02-26T06:03:32;13.75;;;8.80;;
49962;SDS011;36180;57.678;11.910;2024-02-26T06:06:01;16.15;;;9.60;;
49962;SDS011;36180;57.678;11.910;2024-02-26T06:08:28;14.93;;;8.88;;
49962;SDS011;36180;57.678;11.910;2024-02-26T06:10:55;15.38;;;9.15;;
49962;SDS011;36180;57.678;11.910;2024-02-26T06:13:22;15.20;;;9.38;;
49962;SDS011;36180;57.678;11.910;2024-02-26T06:15:49;16.27;;;10.05;;
49962;SDS011;36180;57.678;11.910;2024-02-26T06:18:16;14.65;;;9.90;;
49962;SDS011;36180;57.678;11.910;2024-02-26T06:20:42;16.77;;;10.88;;
49962;SDS011;36180;57.678;11.910;2024-02-26T06:23:12;18.08;;;10.40;;
49962;SDS011;36180;57.678;11.910;2024-02-26T06:25:39;18.30;;;10.93;;
49962;SDS011;36180;57.678;11.910;2024-02-26T06:28:07;20.42;;;10.98;;
49962;SDS011;36180;57.678;11.910;2024-02-26T06:30:34;18.20;;;10.80;;
49962;SDS011;36180;57.678;11.910;2024-02-26T06:33:01;17.75;;;10.98;;
49962;SDS011;36180;57.678;11.910;2024-02-26T06:35:29;15.07;;;10.93;;
49962;SDS011;36180;57.678;11.910;2024-02-26T06:37:55;20.63;;;11.07;;
49962;SDS011;36180;57.678;11.910;2024-02-26T06:40:24;19.25;;;11.75;;
49962;SDS011;36180;57.678;11.910;2024-02-26T06:42:51;17.05;;;11.18;;
49962;SDS011;36180;57.678;11.910;2024-02-26T06:45:18;20.05;;;11.20;;
49962;SDS011;36180;57.678;11.910;2024-02-26T06:47:45;16.95;;;11.15;;
49962;SDS011;36180;57.678;11.910;2024-02-26T06:50:12;16.10;;;11.60;;
49962;SDS011;36180;57.678;11.910;2024-02-26T06:52:39;19.75;;;11.35;;
49962;SDS011;36180;57.678;11.910;2024-02-26T06:55:07;17.30;;;11.40;;
49962;SDS011;36180;57.678;11.910;2024-02-26T06:57:35;17.38;;;11.25;;
49962;SDS011;36180;57.678;11.910;2024-02-26T07:00:03;17.40;;;11.18;;
49962;SDS011;36180;57.678;11.910;2024-02-26T07:02:30;19.08;;;12.45;;
49962;SDS011;36180;57.678;11.910;2024-02-26T07:04:57;18.08;;;11.68;;
49962;SDS011;36180;57.678;11.910;2024-02-26T07:07:24;17.90;;;11.85;;
49962;SDS011;36180;57.678;11.910;2024-02-26T07:09:52;18.10;;;12.20;;
49962;SDS011;36180;57.678;11.910;2024-02-26T07:12:19;18.23;;;11.98;;
49962;SDS011;36180;57.678;11.910;2024-02-26T07:14:48;18.40;;;11.85;;
49962;SDS011;36180;57.678;11.910;2024-02-26T07:17:17;18.70;;;11.70;;
49962;SDS011;36180;57.678;11.910;2024-02-26T07:19:44;16.25;;;11.30;;
49962;SDS011;36180;57.678;11.910;2024-02-26T07:22:11;18.75;;;11.70;;
49962;SDS011;36180;57.678;11.910;2024-02-26T07:24:39;24.48;;;12.25;;
49962;SDS011;36180;57.678;11.910;2024-02-26T07:27:06;19.30;;;12.63;;
49962;SDS011;36180;57.678;11.910;2024-02-26T07:29:32;20.23;;;13.60;;
49962;SDS011;36180;57.678;11.910;2024-02-26T07:32:01;18.05;;;13.32;;
49962;SDS011;36180;57.678;11.910;2024-02-26T07:34:28;16.80;;;12.00;;
49962;SDS011;36180;57.678;11.910;2024-02-26T07:36:55;20.42;;;12.50;;
49962;SDS011;36180;57.678;11.910;2024-02-26T07:39:22;19.42;;;11.90;;
49962;SDS011;36180;57.678;11.910;2024-02-26T07:41:49;18.75;;;12.40;;
49962;SDS011;36180;57.678;11.910;2024-02-26T07:44:18;17.30;;;12.55;;
49962;SDS011;36180;57.678;11.910;2024-02-26T07:46:45;21.58;;;12.95;;
49962;SDS011;36180;57.678;11.910;2024-02-26T07:49:13;16.95;;;12.07;;
49962;SDS011;36180;57.678;11.910;2024-02-26T07:51:40;19.67;;;13.35;;
49962;SDS011;36180;57.678;11.910;2024-02-26T07:54:07;18.23;;;13.70;;
49962;SDS011;36180;57.678;11.910;2024-02-26T07:56:34;18.42;;;13.57;;
49962;SDS011;36180;57.678;11.910;2024-02-26T07:59:01;23.20;;;14.38;;
49962;SDS011;36180;57.678;11.910;2024-02-26T08:01:28;19.17;;;13.23;;
49962;SDS011;36180;57.678;11.910;2024-02-26T08:03:55;19.63;;;13.02;;
49962;SDS011;36180;57.678;11.910;2024-02-26T08:06:23;20.17;;;13.18;;
49962;SDS011;36180;57.678;11.910;2024-02-26T08:08:50;18.35;;;12.80;;
49962;SDS011;36180;57.678;11.910;2024-02-26T08:11:18;25.63;;;16.55;;
49962;SDS011;36180;57.678;11.910;2024-02-26T08:13:45;23.27;;;14.25;;
49962;SDS011;36180;57.678;11.910;2024-02-26T08:16:12;19.67;;;13.40;;
49962;SDS011;36180;57.678;11.910;2024-02-26T08:18:39;22.77;;;13.70;;
49962;SDS011;36180;57.678;11.910;2024-02-26T08:21:06;20.45;;;14.38;;
49962;SDS011;36180;57.678;11.910;2024-02-26T08:23:35;22.33;;;14.18;;
49962;SDS011;36180;57.678;11.910;2024-02-26T08:26:02;21.98;;;14.40;;
49962;SDS011;36180;57.678;11.910;2024-02-26T08:28:32;20.00;;;14.00;;
49962;SDS011;36180;57.678;11.910;2024-02-26T08:30:59;20.90;;;15.05;;
49962;SDS011;36180;57.678;11.910;2024-02-26T08:33:26;19.42;;;13.63;;
49962;SDS011;36180;57.678;11.910;2024-02-26T08:35:53;24.33;;;15.25;;
49962;SDS011;36180;57.678;11.910;2024-02-26T08:38:20;20.67;;;14.50;;
49962;SDS011;36180;57.678;11.910;2024-02-26T08:40:49;20.35;;;13.32;;
49962;SDS011;36180;57.678;11.910;2024-02-26T08:43:16;19.92;;;14.45;;
49962;SDS011;36180;57.678;11.910;2024-02-26T08:45:44;20.17;;;14.27;;
49962;SDS011;36180;57.678;11.910;2024-02-26T08:48:11;22.73;;;15.48;;
49962;SDS011;36180;57.678;11.910;2024-02-26T08:50:38;23.75;;;17.27;;
49962;SDS011;36180;57.678;11.910;2024-02-26T08:53:05;21.70;;;16.95;;
49962;SDS011;36180;57.678;11.910;2024-02-26T08:55:32;24.90;;;18.98;;
49962;SDS011;36180;57.678;11.910;2024-02-26T08:58:01;25.02;;;20.08;;
49962;SDS011;36180;57.678;11.910;2024-02-26T09:00:27;24.15;;;19.92;;
49962;SDS011;36180;57.678;11.910;2024-02-26T09:02:56;24.27;;;19.33;;
49962;SDS011;36180;57.678;11.910;2024-02-26T09:05:23;24.00;;;19.73;;
49962;SDS011;36180;57.678;11.910;2024-02-26T09:07:50;23.27;;;19.35;;
49962;SDS011;36180;57.678;11.910;2024-02-26T09:10:17;20.92;;;16.42;;
49962;SDS011;36180;57.678;11.910;2024-02-26T09:12:44;19.33;;;15.07;;
49962;SDS011;36180;57.678;11.910;2024-02-26T09:15:12;17.17;;;12.57;;
49962;SDS011;36180;57.678;11.910;2024-02-26T09:17:40;15.15;;;11.27;;
49962;SDS011;36180;57.678;11.910;2024-02-26T09:20:07;16.42;;;12.07;;
49962;SDS011;36180;57.678;11.910;2024-02-26T09:22:35;17.75;;;12.68;;
49962;SDS011;36180;57.678;11.910;2024-02-26T09:25:03;20.02;;;12.93;;
49962;SDS011;36180;57.678;11.910;2024-02-26T09:27:31;16.95;;;13.13;;
49962;SDS011;36180;57.678;11.910;2024-02-26T09:29:58;18.15;;;13.10;;
49962;SDS011;36180;57.678;11.910;2024-02-26T09:32:26;21.38;;;13.98;;
49962;SDS011;36180;57.678;11.910;2024-02-26T09:34:53;21.45;;;14.27;;
49962;SDS011;36180;57.678;11.910;2024-02-26T09:37:20;24.15;;;14.38;;
49962;SDS011;36180;57.678;11.910;2024-02-26T09:39:47;19.20;;;13.48;;
49962;SDS011;36180;57.678;11.910;2024-02-26T09:42:14;17.90;;;13.52;;
49962;SDS011;36180;57.678;11.910;2024-02-26T09:44:44;19.95;;;13.55;;
49962;SDS011;36180;57.678;11.910;2024-02-26T09:47:11;18.48;;;13.07;;
49962;SDS011;36180;57.678;11.910;2024-02-26T09:49:42;21.02;;;11.95;;
49962;SDS011;36180;57.678;11.910;2024-02-26T09:52:09;16.77;;;11.88;;
49962;SDS011;36180;57.678;11.910;2024-02-26T09:54:36;21.20;;;12.38;;
49962;SDS011;36180;57.678;11.910;2024-02-26T09:57:03;16.98;;;11.27;;
49962;SDS011;36180;57.678;11.910;2024-02-26T09:59:34;16.42;;;10.18;;
49962;SDS011;36180;57.678;11.910;2024-02-26T10:02:04;15.35;;;10.20;;
49962;SDS011;36180;57.678;11.910;2024-02-26T10:04:33;12.80;;;8.52;;
49962;SDS011;36180;57.678;11.910;2024-02-26T10:07:02;11.05;;;8.70;;
49962;SDS011;36180;57.678;11.910;2024-02-26T10:09:30;14.85;;;7.40;;
49962;SDS011;36180;57.678;11.910;2024-02-26T10:11:57;9.88;;;6.90;;
49962;SDS011;36180;57.678;11.910;2024-02-26T10:14:24;9.93;;;7.30;;
49962;SDS011;36180;57.678;11.910;2024-02-26T10:16:51;11.10;;;7.00;;
49962;SDS011;36180;57.678;11.910;2024-02-26T10:19:24;6.90;;;5.60;;
49962;SDS011;36180;57.678;11.910;2024-02-26T10:21:54;9.32;;;5.70;;
49962;SDS011;36180;57.678;11.910;2024-02-26T10:24:24;7.03;;;5.88;;
49962;SDS011;36180;57.678;11.910;2024-02-26T10:26:51;6.68;;;5.03;;
49962;SDS011;36180;57.678;11.910;2024-02-26T10:29:18;6.85;;;4.90;;
49962;SDS011;36180;57.678;11.910;2024-02-26T10:31:46;5.78;;;4.35;;
49962;SDS011;36180;57.678;11.910;2024-02-26T10:34:13;7.53;;;4.00;;
49962;SDS011;36180;57.678;11.910;2024-02-26T10:36:41;4.75;;;4.10;;
49962;SDS011;36180;57.678;11.910;2024-02-26T10:39:09;5.63;;;4.57;;
49962;SDS011;36180;57.678;11.910;2024-02-26T10:41:39;6.07;;;4.20;;
49962;SDS011;36180;57.678;11.910;2024-02-26T10:44:08;4.57;;;3.92;;
49962;SDS011;36180;57.678;11.910;2024-02-26T10:46:36;6.10;;;3.83;;
49962;SDS011;36180;57.678;11.910;2024-02-26T10:49:03;5.07;;;4.03;;
49962;SDS011;36180;57.678;11.910;2024-02-26T10:51:31;5.20;;;4.70;;
49962;SDS011;36180;57.678;11.910;2024-02-26T10:54:00;4.07;;;3.67;;
49962;SDS011;36180;57.678;11.910;2024-02-26T10:56:29;3.88;;;3.53;;
49962;SDS011;36180;57.678;11.910;2024-02-26T10:59:01;4.07;;;3.63;;
49962;SDS011;36180;57.678;11.910;2024-02-26T11:01:28;3.40;;;2.97;;
49962;SDS011;36180;57.678;11.910;2024-02-26T11:03:56;3.78;;;3.40;;
49962;SDS011;36180;57.678;11.910;2024-02-26T11:06:23;6.57;;;3.55;;
49962;SDS011;36180;57.678;11.910;2024-02-26T11:08:52;4.10;;;3.55;;
49962;SDS011;36180;57.678;11.910;2024-02-26T11:11:19;4.03;;;3.40;;
49962;SDS011;36180;57.678;11.910;2024-02-26T11:13:48;2.67;;;1.90;;
49962;SDS011;36180;57.678;11.910;2024-02-26T11:16:17;1.98;;;1.77;;
49962;SDS011;36180;57.678;11.910;2024-02-26T11:18:46;1.90;;;1.80;;
49962;SDS011;36180;57.678;11.910;2024-02-26T11:21:15;3.30;;;2.33;;
49962;SDS011;36180;57.678;11.910;2024-02-26T11:23:43;3.17;;;2.70;;
49962;SDS011;36180;57.678;11.910;2024-02-26T11:26:11;3.67;;;2.85;;
49962;SDS011;36180;57.678;11.910;2024-02-26T11:28:39;3.13;;;2.42;;
49962;SDS011;36180;57.678;11.910;2024-02-26T11:31:06;3.13;;;2.30;;
49962;SDS011;36180;57.678;11.910;2024-02-26T11:33:34;4.38;;;2.35;;
49962;SDS011;36180;57.678;11.910;2024-02-26T11:36:02;3.00;;;2.55;;
49962;SDS011;36180;57.678;11.910;2024-02-26T11:38:29;3.17;;;2.88;;
49962;SDS011;36180;57.678;11.910;2024-02-26T11:40:56;3.83;;;2.70;;
49962;SDS011;36180;57.678;11.910;2024-02-26T11:46:24;3.40;;;2.67;;
49962;SDS011;36180;57.678;11.910;2024-02-26T11:48:55;3.20;;;2.90;;
49962;SDS011;36180;57.678;11.910;2024-02-26T11:51:27;3.50;;;3.20;;
49962;SDS011;36180;57.678;11.910;2024-02-26T11:53:58;5.28;;;3.58;;
49962;SDS011;36180;57.678;11.910;2024-02-26T11:56:25;3.85;;;3.55;;
49962;SDS011;36180;57.678;11.910;2024-02-26T11:58:57;4.35;;;3.95;;
49962;SDS011;36180;57.678;11.910;2024-02-26T12:01:40;3.95;;;3.47;;
49962;SDS011;36180;57.678;11.910;2024-02-26T12:04:13;4.88;;;3.90;;
49962;SDS011;36180;57.678;11.910;2024-02-26T12:06:41;4.85;;;4.35;;
49962;SDS011;36180;57.678;11.910;2024-02-26T12:09:08;4.65;;;4.25;;
49962;SDS011;36180;57.678;11.910;2024-02-26T12:11:37;5.55;;;4.60;;
49962;SDS011;36180;57.678;11.910;2024-02-26T12:16:35;4.45;;;3.88;;
49962;SDS011;36180;57.678;11.910;2024-02-26T12:19:03;4.38;;;3.97;;
49962;SDS011;36180;57.678;11.910;2024-02-26T12:21:34;4.75;;;4.35;;
49962;SDS011;36180;57.678;11.910;2024-02-26T12:24:09;5.82;;;5.05;;
49962;SDS011;36180;57.678;11.910;2024-02-26T12:26:38;6.80;;;5.10;;
49962;SDS011;36180;57.678;11.910;2024-02-26T12:29:05;5.45;;;4.70;;
49962;SDS011;36180;57.678;11.910;2024-02-26T12:31:32;5.90;;;4.40;;
49962;SDS011;36180;57.678;11.910;2024-02-26T12:34:02;5.28;;;4.40;;
49962;SDS011;36180;57.678;11.910;2024-02-26T12:36:29;5.15;;;4.65;;
49962;SDS011;36180;57.678;11.910;2024-02-26T12:38:57;6.38;;;4.38;;
49962;SDS011;36180;57.678;11.910;2024-02-26T12:41:25;4.53;;;4.13;;
49962;SDS011;36180;57.678;11.910;2024-02-26T12:43:53;4.55;;;4.05;;
49962;SDS011;36180;57.678;11.910;2024-02-26T12:46:21;4.25;;;3.85;;
49962;SDS011;36180;57.678;11.910;2024-02-26T12:48:48;7.18;;;4.10;;
49962;SDS011;36180;57.678;11.910;2024-02-26T12:51:15;4.97;;;4.20;;
49962;SDS011;36180;57.678;11.910;2024-02-26T12:53:43;6.05;;;4.05;;
49962;SDS011;36180;57.678;11.910;2024-02-26T12:56:13;5.50;;;4.57;;
49962;SDS011;36180;57.678;11.910;2024-02-26T12:58:39;4.38;;;3.97;;
49962;SDS011;36180;57.678;11.910;2024-02-26T13:01:07;6.25;;;4.60;;
49962;SDS011;36180;57.678;11.910;2024-02-26T13:03:34;6.72;;;4.43;;
49962;SDS011;36180;57.678;11.910;2024-02-26T13:06:02;8.45;;;5.30;;
49962;SDS011;36180;57.678;11.910;2024-02-26T13:08:31;8.15;;;6.28;;
49962;SDS011;36180;57.678;11.910;2024-02-26T13:10:58;9.02;;;6.07;;
49962;SDS011;36180;57.678;11.910;2024-02-26T13:13:27;7.97;;;6.97;;
49962;SDS011;36180;57.678;11.910;2024-02-26T13:16:01;6.78;;;5.80;;
49962;SDS011;36180;57.678;11.910;2024-02-26T13:18:28;7.90;;;6.15;;
49962;SDS011;36180;57.678;11.910;2024-02-26T13:21:06;7.18;;;5.22;;
49962;SDS011;36180;57.678;11.910;2024-02-26T13:23:34;5.13;;;4.38;;
49962;SDS011;36180;57.678;11.910;2024-02-26T13:26:01;5.47;;;4.60;;
49962;SDS011;36180;57.678;11.910;2024-02-26T13:28:29;4.55;;;3.88;;
49962;SDS011;36180;57.678;11.910;2024-02-26T13:30:57;4.90;;;4.00;;
49962;SDS011;36180;57.678;11.910;2024-02-26T13:33:25;6.75;;;4.00;;
49962;SDS011;36180;57.678;11.910;2024-02-26T13:35:54;4.72;;;4.22;;
49962;SDS011;36180;57.678;11.910;2024-02-26T13:38:22;5.47;;;4.90;;
49962;SDS011;36180;57.678;11.910;2024-02-26T13:40:49;6.78;;;5.85;;
49962;SDS011;36180;57.678;11.910;2024-02-26T13:43:16;11.15;;;6.00;;
49962;SDS011;36180;57.678;11.910;2024-02-26T13:45:45;7.43;;;5.75;;
49962;SDS011;36180;57.678;11.910;2024-02-26T13:48:13;7.03;;;5.18;;
49962;SDS011;36180;57.678;11.910;2024-02-26T13:50:40;6.78;;;5.47;;
49962;SDS011;36180;57.678;11.910;2024-02-26T13:53:08;8.23;;;5.60;;
49962;SDS011;36180;57.678;11.910;2024-02-26T13:55:36;6.05;;;5.45;;
49962;SDS011;36180;57.678;11.910;2024-02-26T13:58:03;7.78;;;6.03;;
49962;SDS011;36180;57.678;11.910;2024-02-26T14:00:32;6.35;;;5.75;;
49962;SDS011;36180;57.678;11.910;2024-02-26T14:03:01;6.28;;;4.85;;
49962;SDS011;36180;57.678;11.910;2024-02-26T14:05:29;8.43;;;5.93;;
49962;SDS011;36180;57.678;11.910;2024-02-26T14:07:56;5.93;;;5.07;;
49962;SDS011;36180;57.678;11.910;2024-02-26T14:10:23;6.25;;;5.63;;
49962;SDS011;36180;57.678;11.910;2024-02-26T14:12:51;8.27;;;5.35;;
49962;SDS011;36180;57.678;11.910;2024-02-26T14:15:18;5.72;;;5.00;;
49962;SDS011;36180;57.678;11.910;2024-02-26T14:17:45;6.00;;;5.40;;
49962;SDS011;36180;57.678;11.910;2024-02-26T14:20:20;7.45;;;5.25;;
49962;SDS011;36180;57.678;11.910;2024-02-26T14:22:47;4.60;;;4.20;;
49962;SDS011;36180;57.678;11.910;2024-02-26T14:25:14;5.00;;;4.43;;
49962;SDS011;36180;57.678;11.910;2024-02-26T14:27:41;5.35;;;4.85;;
49962;SDS011;36180;57.678;11.910;2024-02-26T14:30:08;7.82;;;6.30;;
49962;SDS011;36180;57.678;11.910;2024-02-26T14:32:36;11.73;;;6.32;;